sensor_id;sensor_type;location;lat;lon;timestamp;temperature;humidity
66920;DHT22;53831;52.090;17.026;2022-12-04T00:00:12;1.50;99.90
66920;DHT22;53831;52.090;17.026;2022-12-04T00:01:16;1.50;99.90
66920;DHT22;53831;52.090;17.026;2022-12-04T00:02:17;1.60;99.90
66920;DHT22;53831;52.090;17.026;2022-12-04T00:03:18;1.60;99.90
66920;DHT22;53831;52.090;17.026;2022-12-04T00:04:18;1.60;99.90
66920;DHT22;53831;52.090;17.026;2022-12-04T00:05:19;1.50;99.90
66920;DHT22;53831;52.090;17.026;2022-12-04T00:06:20;1.50;99.90
66920;DHT22;53831;52.090;17.026;2022-12-04T00:07:21;1.50;99.90
66920;DHT22;53831;52.090;17.026;2022-12-04T00:08:22;1.50;99.90
66920;DHT22;53831;52.090;17.026;2022-12-04T00:09:22;1.60;99.90
66920;DHT22;53831;52.090;17.026;2022-12-04T00:10:23;1.50;99.90
66920;DHT22;53831;52.090;17.026;2022-12-04T00:11:26;1.50;99.90
66920;DHT22;53831;52.090;17.026;2022-12-04T00:12:27;1.50;99.90
66920;DHT22;53831;52.090;17.026;2022-12-04T00:13:28;1.60;99.90
66920;DHT22;53831;52.090;17.026;2022-12-04T00:14:29;1.60;99.90
66920;DHT22;53831;52.090;17.026;2022-12-04T00:15:29;1.60;99.90
66920;DHT22;53831;52.090;17.026;2022-12-04T00:16:30;1.60;99.90
66920;DHT22;53831;52.090;17.026;2022-12-04T00:17:31;1.60;99.90
66920;DHT22;53831;52.090;17.026;2022-12-04T00:18:32;1.60;99.90
66920;DHT22;53831;52.090;17.026;2022-12-04T00:19:32;1.60;99.90
66920;DHT22;53831;52.090;17.026;2022-12-04T00:20:33;1.60;99.90
66920;DHT22;53831;52.090;17.026;2022-12-04T00:21:34;1.60;99.90
66920;DHT22;53831;52.090;17.026;2022-12-04T00:22:35;1.60;99.90
66920;DHT22;53831;52.090;17.026;2022-12-04T00:23:36;1.60;99.90
66920;DHT22;53831;52.090;17.026;2022-12-04T00:24:37;1.60;99.90
66920;DHT22;53831;52.090;17.026;2022-12-04T00:25:37;1.60;99.90
66920;DHT22;53831;52.090;17.026;2022-12-04T00:26:38;1.60;99.90
66920;DHT22;53831;52.090;17.026;2022-12-04T00:27:39;1.60;99.90
66920;DHT22;53831;52.090;17.026;2022-12-04T00:28:39;1.70;99.90
66920;DHT22;53831;52.090;17.026;2022-12-04T00:29:40;1.70;99.90
66920;DHT22;53831;52.090;17.026;2022-12-04T00:30:42;1.60;99.90
66920;DHT22;53831;52.090;17.026;2022-12-04T00:31:43;1.60;99.90
66920;DHT22;53831;52.090;17.026;2022-12-04T00:32:44;1.60;99.90
66920;DHT22;53831;52.090;17.026;2022-12-04T00:33:45;1.60;99.90
66920;DHT22;53831;52.090;17.026;2022-12-04T00:34:46;1.70;99.90
66920;DHT22;53831;52.090;17.026;2022-12-04T00:35:47;1.60;99.90
66920;DHT22;53831;52.090;17.026;2022-12-04T00:36:48;1.60;99.90
66920;DHT22;53831;52.090;17.026;2022-12-04T00:37:48;1.60;99.90
66920;DHT22;53831;52.090;17.026;2022-12-04T00:38:49;1.60;99.90
66920;DHT22;53831;52.090;17.026;2022-12-04T00:39:50;1.60;99.90
66920;DHT22;53831;52.090;17.026;2022-12-04T00:40:51;1.70;99.90
66920;DHT22;53831;52.090;17.026;2022-12-04T00:41:52;1.70;99.90
66920;DHT22;53831;52.090;17.026;2022-12-04T00:42:52;1.70;99.90
66920;DHT22;53831;52.090;17.026;2022-12-04T00:43:53;1.70;99.90
66920;DHT22;53831;52.090;17.026;2022-12-04T00:44:54;1.70;99.90
66920;DHT22;53831;52.090;17.026;2022-12-04T00:45:54;1.70;99.90
66920;DHT22;53831;52.090;17.026;2022-12-04T00:46:55;1.70;99.90
66920;DHT22;53831;52.090;17.026;2022-12-04T00:47:56;1.70;99.90
66920;DHT22;53831;52.090;17.026;2022-12-04T00:48:56;1.70;99.90
66920;DHT22;53831;52.090;17.026;2022-12-04T00:50:01;1.80;99.90
66920;DHT22;53831;52.090;17.026;2022-12-04T00:51:03;1.70;99.90
66920;DHT22;53831;52.090;17.026;2022-12-04T00:52:04;1.70;99.90
66920;DHT22;53831;52.090;17.026;2022-12-04T00:53:05;1.70;99.90
66920;DHT22;53831;52.090;17.026;2022-12-04T00:54:05;1.70;99.90
66920;DHT22;53831;52.090;17.026;2022-12-04T00:55:07;1.80;99.90
66920;DHT22;53831;52.090;17.026;2022-12-04T00:56:08;1.80;99.90
66920;DHT22;53831;52.090;17.026;2022-12-04T00:57:09;1.70;99.90
66920;DHT22;53831;52.090;17.026;2022-12-04T00:58:10;1.70;99.90
66920;DHT22;53831;52.090;17.026;2022-12-04T00:59:11;1.70;99.90
66920;DHT22;53831;52.090;17.026;2022-12-04T01:00:12;1.70;99.90
66920;DHT22;53831;52.090;17.026;2022-12-04T01:01:18;1.80;99.90
66920;DHT22;53831;52.090;17.026;2022-12-04T01:02:19;1.80;99.90
66920;DHT22;53831;52.090;17.026;2022-12-04T01:03:20;1.80;99.90
66920;DHT22;53831;52.090;17.026;2022-12-04T01:04:20;1.80;99.90
66920;DHT22;53831;52.090;17.026;2022-12-04T01:05:21;1.80;99.90
66920;DHT22;53831;52.090;17.026;2022-12-04T01:06:33;1.80;99.90
66920;DHT22;53831;52.090;17.026;2022-12-04T01:07:33;1.80;99.90
66920;DHT22;53831;52.090;17.026;2022-12-04T01:08:34;1.80;99.90
66920;DHT22;53831;52.090;17.026;2022-12-04T01:09:35;1.80;99.90
66920;DHT22;53831;52.090;17.026;2022-12-04T01:10:38;1.80;99.90
66920;DHT22;53831;52.090;17.026;2022-12-04T01:11:39;1.80;99.90
66920;DHT22;53831;52.090;17.026;2022-12-04T01:12:39;1.80;99.90
66920;DHT22;53831;52.090;17.026;2022-12-04T01:13:40;1.90;99.90
66920;DHT22;53831;52.090;17.026;2022-12-04T01:14:40;1.80;99.90
66920;DHT22;53831;52.090;17.026;2022-12-04T01:15:41;1.90;99.90
66920;DHT22;53831;52.090;17.026;2022-12-04T01:16:46;1.80;99.90
66920;DHT22;53831;52.090;17.026;2022-12-04T01:17:47;1.80;99.90
66920;DHT22;53831;52.090;17.026;2022-12-04T01:18:48;1.80;99.90
66920;DHT22;53831;52.090;17.026;2022-12-04T01:19:49;1.80;99.90
66920;DHT22;53831;52.090;17.026;2022-12-04T01:20:51;1.90;99.90
66920;DHT22;53831;52.090;17.026;2022-12-04T01:21:51;1.80;99.90
66920;DHT22;53831;52.090;17.026;2022-12-04T01:22:52;1.80;99.90
66920;DHT22;53831;52.090;17.026;2022-12-04T01:23:53;1.80;99.90
66920;DHT22;53831;52.090;17.026;2022-12-04T01:24:56;1.80;99.90
66920;DHT22;53831;52.090;17.026;2022-12-04T01:25:57;1.80;99.90
66920;DHT22;53831;52.090;17.026;2022-12-04T01:26:58;1.80;99.90
66920;DHT22;53831;52.090;17.026;2022-12-04T01:27:59;1.80;99.90
66920;DHT22;53831;52.090;17.026;2022-12-04T01:29:00;1.80;99.90
66920;DHT22;53831;52.090;17.026;2022-12-04T01:30:00;1.80;99.90
66920;DHT22;53831;52.090;17.026;2022-12-04T01:31:03;1.80;99.90
66920;DHT22;53831;52.090;17.026;2022-12-04T01:32:04;1.80;99.90
66920;DHT22;53831;52.090;17.026;2022-12-04T01:33:04;1.90;99.90
66920;DHT22;53831;52.090;17.026;2022-12-04T01:34:05;1.80;99.90
66920;DHT22;53831;52.090;17.026;2022-12-04T01:35:06;1.80;99.90
66920;DHT22;53831;52.090;17.026;2022-12-04T01:36:09;1.90;99.90
66920;DHT22;53831;52.090;17.026;2022-12-04T01:37:10;1.90;99.90
66920;DHT22;53831;52.090;17.026;2022-12-04T01:38:11;1.90;99.90
66920;DHT22;53831;52.090;17.026;2022-12-04T01:39:11;1.80;99.90
66920;DHT22;53831;52.090;17.026;2022-12-04T01:40:14;1.80;99.90
66920;DHT22;53831;52.090;17.026;2022-12-04T01:41:18;1.90;99.90
66920;DHT22;53831;52.090;17.026;2022-12-04T01:42:19;1.90;99.90
66920;DHT22;53831;52.090;17.026;2022-12-04T01:43:20;1.90;99.90
66920;DHT22;53831;52.090;17.026;2022-12-04T01:44:23;1.90;99.90
66920;DHT22;53831;52.090;17.026;2022-12-04T01:45:36;1.90;99.90
66920;DHT22;53831;52.090;17.026;2022-12-04T01:46:38;1.90;99.90
66920;DHT22;53831;52.090;17.026;2022-12-04T01:47:39;1.80;99.90
66920;DHT22;53831;52.090;17.026;2022-12-04T01:48:50;1.90;99.90
66920;DHT22;53831;52.090;17.026;2022-12-04T01:49:52;1.90;99.90
66920;DHT22;53831;52.090;17.026;2022-12-04T01:50:55;1.90;99.90
66920;DHT22;53831;52.090;17.026;2022-12-04T01:52:02;1.90;99.90
66920;DHT22;53831;52.090;17.026;2022-12-04T01:53:04;1.90;99.90
66920;DHT22;53831;52.090;17.026;2022-12-04T01:54:09;1.90;99.90
66920;DHT22;53831;52.090;17.026;2022-12-04T01:55:11;1.90;99.90
66920;DHT22;53831;52.090;17.026;2022-12-04T01:56:12;1.90;99.90
66920;DHT22;53831;52.090;17.026;2022-12-04T01:57:19;1.90;99.90
66920;DHT22;53831;52.090;17.026;2022-12-04T01:58:25;1.90;99.90
66920;DHT22;53831;52.090;17.026;2022-12-04T01:59:30;1.90;99.90
66920;DHT22;53831;52.090;17.026;2022-12-04T02:00:32;1.90;99.90
66920;DHT22;53831;52.090;17.026;2022-12-04T02:01:39;1.90;99.90
66920;DHT22;53831;52.090;17.026;2022-12-04T02:02:45;1.90;99.90
66920;DHT22;53831;52.090;17.026;2022-12-04T02:03:45;1.90;99.90
66920;DHT22;53831;52.090;17.026;2022-12-04T02:04:46;1.90;99.90
66920;DHT22;53831;52.090;17.026;2022-12-04T02:05:47;1.90;99.90
66920;DHT22;53831;52.090;17.026;2022-12-04T02:06:48;1.90;99.90
66920;DHT22;53831;52.090;17.026;2022-12-04T02:07:51;1.90;99.90
66920;DHT22;53831;52.090;17.026;2022-12-04T02:08:52;1.90;99.90
66920;DHT22;53831;52.090;17.026;2022-12-04T02:09:53;2.00;99.90
66920;DHT22;53831;52.090;17.026;2022-12-04T02:11:26;1.90;99.90
66920;DHT22;53831;52.090;17.026;2022-12-04T02:12:56;1.90;99.90
66920;DHT22;53831;52.090;17.026;2022-12-04T02:14:25;1.90;99.90
66920;DHT22;53831;52.090;17.026;2022-12-04T02:16:50;1.90;99.90
66920;DHT22;53831;52.090;17.026;2022-12-04T02:21:10;2.00;99.90
66920;DHT22;53831;52.090;17.026;2022-12-04T02:22:43;2.00;99.90
66920;DHT22;53831;52.090;17.026;2022-12-04T02:24:08;2.00;99.90
66920;DHT22;53831;52.090;17.026;2022-12-04T02:25:17;2.00;99.90
66920;DHT22;53831;52.090;17.026;2022-12-04T02:26:48;2.00;99.90
66920;DHT22;53831;52.090;17.026;2022-12-04T02:30:27;2.00;99.90
66920;DHT22;53831;52.090;17.026;2022-12-04T02:31:33;1.90;99.90
66920;DHT22;53831;52.090;17.026;2022-12-04T02:35:19;2.00;99.90
66920;DHT22;53831;52.090;17.026;2022-12-04T02:36:23;2.00;99.90
66920;DHT22;53831;52.090;17.026;2022-12-04T02:37:32;2.00;99.90
66920;DHT22;53831;52.090;17.026;2022-12-04T02:38:43;2.00;99.90
66920;DHT22;53831;52.090;17.026;2022-12-04T02:39:54;2.00;99.90
66920;DHT22;53831;52.090;17.026;2022-12-04T02:41:00;2.00;99.90
66920;DHT22;53831;52.090;17.026;2022-12-04T02:42:13;2.00;99.90
66920;DHT22;53831;52.090;17.026;2022-12-04T02:43:19;2.00;99.90
66920;DHT22;53831;52.090;17.026;2022-12-04T02:46:25;2.00;99.90
66920;DHT22;53831;52.090;17.026;2022-12-04T02:47:27;2.10;99.90
66920;DHT22;53831;52.090;17.026;2022-12-04T02:48:31;2.00;99.90
66920;DHT22;53831;52.090;17.026;2022-12-04T02:49:37;2.00;99.90
66920;DHT22;53831;52.090;17.026;2022-12-04T02:50:40;2.00;99.90
66920;DHT22;53831;52.090;17.026;2022-12-04T02:51:42;2.00;99.90
66920;DHT22;53831;52.090;17.026;2022-12-04T02:52:49;2.00;99.90
66920;DHT22;53831;52.090;17.026;2022-12-04T02:53:56;2.00;99.90
66920;DHT22;53831;52.090;17.026;2022-12-04T02:55:02;2.00;99.90
66920;DHT22;53831;52.090;17.026;2022-12-04T02:56:11;2.00;99.90
66920;DHT22;53831;52.090;17.026;2022-12-04T02:57:17;2.10;99.90
66920;DHT22;53831;52.090;17.026;2022-12-04T02:58:30;2.00;99.90
66920;DHT22;53831;52.090;17.026;2022-12-04T02:59:37;2.00;99.90
66920;DHT22;53831;52.090;17.026;2022-12-04T03:00:41;2.00;99.90
66920;DHT22;53831;52.090;17.026;2022-12-04T03:01:46;2.00;99.90
66920;DHT22;53831;52.090;17.026;2022-12-04T03:02:54;2.00;99.90
66920;DHT22;53831;52.090;17.026;2022-12-04T03:04:07;2.00;99.90
66920;DHT22;53831;52.090;17.026;2022-12-04T03:05:13;2.10;99.90
66920;DHT22;53831;52.090;17.026;2022-12-04T03:06:15;2.00;99.90
66920;DHT22;53831;52.090;17.026;2022-12-04T03:07:25;2.00;99.90
66920;DHT22;53831;52.090;17.026;2022-12-04T03:08:44;2.10;99.90
66920;DHT22;53831;52.090;17.026;2022-12-04T03:09:50;2.10;99.90
66920;DHT22;53831;52.090;17.026;2022-12-04T03:10:54;2.10;99.90
66920;DHT22;53831;52.090;17.026;2022-12-04T03:12:00;2.10;99.90
66920;DHT22;53831;52.090;17.026;2022-12-04T03:13:12;2.10;99.90
66920;DHT22;53831;52.090;17.026;2022-12-04T03:14:24;2.10;99.90
66920;DHT22;53831;52.090;17.026;2022-12-04T03:15:30;2.10;99.90
66920;DHT22;53831;52.090;17.026;2022-12-04T03:16:38;2.10;99.90
66920;DHT22;53831;52.090;17.026;2022-12-04T03:17:46;2.10;99.90
66920;DHT22;53831;52.090;17.026;2022-12-04T03:18:53;2.10;99.90
66920;DHT22;53831;52.090;17.026;2022-12-04T03:19:59;2.10;99.90
66920;DHT22;53831;52.090;17.026;2022-12-04T03:21:07;2.10;99.90
66920;DHT22;53831;52.090;17.026;2022-12-04T03:22:13;2.10;99.90
66920;DHT22;53831;52.090;17.026;2022-12-04T03:23:18;2.10;99.90
66920;DHT22;53831;52.090;17.026;2022-12-04T03:24:28;2.10;99.90
66920;DHT22;53831;52.090;17.026;2022-12-04T03:25:43;2.10;99.90
66920;DHT22;53831;52.090;17.026;2022-12-04T03:27:02;2.10;99.90
66920;DHT22;53831;52.090;17.026;2022-12-04T03:28:15;2.20;99.90
66920;DHT22;53831;52.090;17.026;2022-12-04T03:29:20;2.20;99.90
66920;DHT22;53831;52.090;17.026;2022-12-04T03:30:22;2.20;99.90
66920;DHT22;53831;52.090;17.026;2022-12-04T03:31:41;2.20;99.90
66920;DHT22;53831;52.090;17.026;2022-12-04T03:33:54;2.20;99.90
66920;DHT22;53831;52.090;17.026;2022-12-04T03:36:18;2.20;99.90
66920;DHT22;53831;52.090;17.026;2022-12-04T03:37:35;2.20;99.90
66920;DHT22;53831;52.090;17.026;2022-12-04T03:38:45;2.20;99.90
66920;DHT22;53831;52.090;17.026;2022-12-04T03:40:16;2.20;99.90
66920;DHT22;53831;52.090;17.026;2022-12-04T03:42:37;2.20;99.90
66920;DHT22;53831;52.090;17.026;2022-12-04T03:43:51;2.20;99.90
66920;DHT22;53831;52.090;17.026;2022-12-04T03:45:14;2.20;99.90
66920;DHT22;53831;52.090;17.026;2022-12-04T03:46:18;2.20;99.90
66920;DHT22;53831;52.090;17.026;2022-12-04T03:47:37;2.20;99.90
66920;DHT22;53831;52.090;17.026;2022-12-04T03:48:46;2.20;99.90
66920;DHT22;53831;52.090;17.026;2022-12-04T03:51:03;2.10;99.90
66920;DHT22;53831;52.090;17.026;2022-12-04T03:52:23;2.20;99.90
66920;DHT22;53831;52.090;17.026;2022-12-04T03:53:39;2.20;99.90
66920;DHT22;53831;52.090;17.026;2022-12-04T03:54:56;2.20;99.90
66920;DHT22;53831;52.090;17.026;2022-12-04T03:56:20;2.20;99.90
66920;DHT22;53831;52.090;17.026;2022-12-04T03:57:28;2.20;99.90
66920;DHT22;53831;52.090;17.026;2022-12-04T03:58:32;2.30;99.90
66920;DHT22;53831;52.090;17.026;2022-12-04T03:59:38;2.30;99.90
66920;DHT22;53831;52.090;17.026;2022-12-04T04:00:41;2.30;99.90
66920;DHT22;53831;52.090;17.026;2022-12-04T04:01:45;2.30;99.90
66920;DHT22;53831;52.090;17.026;2022-12-04T04:02:54;2.30;99.90
66920;DHT22;53831;52.090;17.026;2022-12-04T04:03:56;2.20;99.90
66920;DHT22;53831;52.090;17.026;2022-12-04T04:04:59;2.20;99.90
66920;DHT22;53831;52.090;17.026;2022-12-04T04:06:06;2.30;99.90
66920;DHT22;53831;52.090;17.026;2022-12-04T04:07:15;2.20;99.90
66920;DHT22;53831;52.090;17.026;2022-12-04T04:08:20;2.30;99.90
66920;DHT22;53831;52.090;17.026;2022-12-04T04:09:29;2.30;99.90
66920;DHT22;53831;52.090;17.026;2022-12-04T04:10:31;2.30;99.90
66920;DHT22;53831;52.090;17.026;2022-12-04T04:11:42;2.30;99.90
66920;DHT22;53831;52.090;17.026;2022-12-04T04:12:54;2.20;99.90
66920;DHT22;53831;52.090;17.026;2022-12-04T04:14:23;2.20;99.90
66920;DHT22;53831;52.090;17.026;2022-12-04T04:15:48;2.20;99.90
66920;DHT22;53831;52.090;17.026;2022-12-04T04:17:12;2.20;99.90
66920;DHT22;53831;52.090;17.026;2022-12-04T04:18:34;2.20;99.90
66920;DHT22;53831;52.090;17.026;2022-12-04T04:20:00;2.20;99.90
66920;DHT22;53831;52.090;17.026;2022-12-04T04:21:23;2.20;99.90
66920;DHT22;53831;52.090;17.026;2022-12-04T04:22:46;2.20;99.90
66920;DHT22;53831;52.090;17.026;2022-12-04T04:24:10;2.20;99.90
66920;DHT22;53831;52.090;17.026;2022-12-04T04:25:20;2.30;99.90
66920;DHT22;53831;52.090;17.026;2022-12-04T04:26:24;2.30;99.90
66920;DHT22;53831;52.090;17.026;2022-12-04T04:27:25;2.30;99.90
66920;DHT22;53831;52.090;17.026;2022-12-04T04:28:35;2.30;99.90
66920;DHT22;53831;52.090;17.026;2022-12-04T04:29:37;2.30;99.90
66920;DHT22;53831;52.090;17.026;2022-12-04T04:30:38;2.30;99.90
66920;DHT22;53831;52.090;17.026;2022-12-04T04:33:11;2.30;99.90
66920;DHT22;53831;52.090;17.026;2022-12-04T04:34:20;2.30;99.90
66920;DHT22;53831;52.090;17.026;2022-12-04T04:35:40;2.30;99.90
66920;DHT22;53831;52.090;17.026;2022-12-04T04:37:10;2.30;99.90
66920;DHT22;53831;52.090;17.026;2022-12-04T04:38:33;2.30;99.90
66920;DHT22;53831;52.090;17.026;2022-12-04T04:41:28;2.30;99.90
66920;DHT22;53831;52.090;17.026;2022-12-04T04:42:36;2.30;99.90
66920;DHT22;53831;52.090;17.026;2022-12-04T04:45:02;2.30;99.90
66920;DHT22;53831;52.090;17.026;2022-12-04T04:46:07;2.30;99.90
66920;DHT22;53831;52.090;17.026;2022-12-04T04:47:33;2.30;99.90
66920;DHT22;53831;52.090;17.026;2022-12-04T04:48:40;2.30;99.90
66920;DHT22;53831;52.090;17.026;2022-12-04T04:49:42;2.30;99.90
66920;DHT22;53831;52.090;17.026;2022-12-04T04:50:45;2.30;99.90
66920;DHT22;53831;52.090;17.026;2022-12-04T04:51:46;2.30;99.90
66920;DHT22;53831;52.090;17.026;2022-12-04T04:52:50;2.30;99.90
66920;DHT22;53831;52.090;17.026;2022-12-04T04:53:54;2.30;99.90
66920;DHT22;53831;52.090;17.026;2022-12-04T04:54:58;2.30;99.90
66920;DHT22;53831;52.090;17.026;2022-12-04T04:56:00;2.30;99.90
66920;DHT22;53831;52.090;17.026;2022-12-04T04:57:00;2.30;99.90
66920;DHT22;53831;52.090;17.026;2022-12-04T04:58:27;2.30;99.90
66920;DHT22;53831;52.090;17.026;2022-12-04T04:59:28;2.30;99.90
66920;DHT22;53831;52.090;17.026;2022-12-04T05:00:29;2.30;99.90
66920;DHT22;53831;52.090;17.026;2022-12-04T05:01:30;2.40;99.90
66920;DHT22;53831;52.090;17.026;2022-12-04T05:02:31;2.40;99.90
66920;DHT22;53831;52.090;17.026;2022-12-04T05:03:33;2.40;99.90
66920;DHT22;53831;52.090;17.026;2022-12-04T05:04:34;2.40;99.90
66920;DHT22;53831;52.090;17.026;2022-12-04T05:05:34;2.40;99.90
66920;DHT22;53831;52.090;17.026;2022-12-04T05:06:35;2.40;99.90
66920;DHT22;53831;52.090;17.026;2022-12-04T05:07:36;2.40;99.90
66920;DHT22;53831;52.090;17.026;2022-12-04T05:08:36;2.40;99.90
66920;DHT22;53831;52.090;17.026;2022-12-04T05:09:37;2.30;99.90
66920;DHT22;53831;52.090;17.026;2022-12-04T05:10:38;2.40;99.90
66920;DHT22;53831;52.090;17.026;2022-12-04T05:11:38;2.40;99.90
66920;DHT22;53831;52.090;17.026;2022-12-04T05:12:39;2.40;99.90
66920;DHT22;53831;52.090;17.026;2022-12-04T05:13:41;2.40;99.90
66920;DHT22;53831;52.090;17.026;2022-12-04T05:14:41;2.40;99.90
66920;DHT22;53831;52.090;17.026;2022-12-04T05:15:42;2.40;99.90
66920;DHT22;53831;52.090;17.026;2022-12-04T05:16:43;2.40;99.90
66920;DHT22;53831;52.090;17.026;2022-12-04T05:17:43;2.40;99.90
66920;DHT22;53831;52.090;17.026;2022-12-04T05:18:44;2.40;99.90
66920;DHT22;53831;52.090;17.026;2022-12-04T05:20:05;2.40;99.90
66920;DHT22;53831;52.090;17.026;2022-12-04T05:21:08;2.40;99.90
66920;DHT22;53831;52.090;17.026;2022-12-04T05:22:15;2.40;99.90
66920;DHT22;53831;52.090;17.026;2022-12-04T05:23:16;2.40;99.90
66920;DHT22;53831;52.090;17.026;2022-12-04T05:24:16;2.40;99.90
66920;DHT22;53831;52.090;17.026;2022-12-04T05:25:17;2.50;99.90
66920;DHT22;53831;52.090;17.026;2022-12-04T05:26:17;2.50;99.90
66920;DHT22;53831;52.090;17.026;2022-12-04T05:27:19;2.50;99.90
66920;DHT22;53831;52.090;17.026;2022-12-04T05:28:20;2.50;99.90
66920;DHT22;53831;52.090;17.026;2022-12-04T05:29:21;2.50;99.90
66920;DHT22;53831;52.090;17.026;2022-12-04T05:30:21;2.50;99.90
66920;DHT22;53831;52.090;17.026;2022-12-04T05:31:22;2.50;99.90
66920;DHT22;53831;52.090;17.026;2022-12-04T05:32:24;2.50;99.90
66920;DHT22;53831;52.090;17.026;2022-12-04T05:33:26;2.50;99.90
66920;DHT22;53831;52.090;17.026;2022-12-04T05:34:27;2.60;99.90
66920;DHT22;53831;52.090;17.026;2022-12-04T05:35:27;2.50;99.90
66920;DHT22;53831;52.090;17.026;2022-12-04T05:36:28;2.60;99.90
66920;DHT22;53831;52.090;17.026;2022-12-04T05:37:28;2.60;99.90
66920;DHT22;53831;52.090;17.026;2022-12-04T05:38:30;2.50;99.90
66920;DHT22;53831;52.090;17.026;2022-12-04T05:39:30;2.50;99.90
66920;DHT22;53831;52.090;17.026;2022-12-04T05:40:31;2.50;99.90
66920;DHT22;53831;52.090;17.026;2022-12-04T05:41:31;2.50;99.90
66920;DHT22;53831;52.090;17.026;2022-12-04T05:42:32;2.50;99.90
66920;DHT22;53831;52.090;17.026;2022-12-04T05:43:33;2.50;99.90
66920;DHT22;53831;52.090;17.026;2022-12-04T05:44:34;2.60;99.90
66920;DHT22;53831;52.090;17.026;2022-12-04T05:45:36;2.60;99.90
66920;DHT22;53831;52.090;17.026;2022-12-04T05:46:37;2.50;99.90
66920;DHT22;53831;52.090;17.026;2022-12-04T05:47:42;2.60;99.90
66920;DHT22;53831;52.090;17.026;2022-12-04T05:48:42;2.60;99.90
66920;DHT22;53831;52.090;17.026;2022-12-04T05:49:43;2.60;99.90
66920;DHT22;53831;52.090;17.026;2022-12-04T05:50:44;2.50;99.90
66920;DHT22;53831;52.090;17.026;2022-12-04T05:51:44;2.50;99.90
66920;DHT22;53831;52.090;17.026;2022-12-04T05:52:45;2.50;99.90
66920;DHT22;53831;52.090;17.026;2022-12-04T05:53:46;2.50;99.90
66920;DHT22;53831;52.090;17.026;2022-12-04T05:54:46;2.60;99.90
66920;DHT22;53831;52.090;17.026;2022-12-04T05:55:57;2.60;99.90
66920;DHT22;53831;52.090;17.026;2022-12-04T05:56:58;2.60;99.90
66920;DHT22;53831;52.090;17.026;2022-12-04T05:57:59;2.60;99.90
66920;DHT22;53831;52.090;17.026;2022-12-04T05:59:00;2.60;99.90
66920;DHT22;53831;52.090;17.026;2022-12-04T06:00:00;2.60;99.90
66920;DHT22;53831;52.090;17.026;2022-12-04T06:01:07;2.60;99.90
66920;DHT22;53831;52.090;17.026;2022-12-04T06:02:08;2.50;99.90
66920;DHT22;53831;52.090;17.026;2022-12-04T06:03:09;2.60;99.90
66920;DHT22;53831;52.090;17.026;2022-12-04T06:04:10;2.50;99.90
66920;DHT22;53831;52.090;17.026;2022-12-04T06:05:11;2.60;99.90
66920;DHT22;53831;52.090;17.026;2022-12-04T06:06:15;2.60;99.90
66920;DHT22;53831;52.090;17.026;2022-12-04T06:07:16;2.60;99.90
66920;DHT22;53831;52.090;17.026;2022-12-04T06:08:17;2.60;99.90
66920;DHT22;53831;52.090;17.026;2022-12-04T06:09:17;2.60;99.90
66920;DHT22;53831;52.090;17.026;2022-12-04T06:10:18;2.60;99.90
66920;DHT22;53831;52.090;17.026;2022-12-04T06:11:21;2.60;99.90
66920;DHT22;53831;52.090;17.026;2022-12-04T06:12:22;2.60;99.90
66920;DHT22;53831;52.090;17.026;2022-12-04T06:13:22;2.60;99.90
66920;DHT22;53831;52.090;17.026;2022-12-04T06:14:23;2.60;99.90
66920;DHT22;53831;52.090;17.026;2022-12-04T06:15:24;2.70;99.90
66920;DHT22;53831;52.090;17.026;2022-12-04T06:16:28;2.60;99.90
66920;DHT22;53831;52.090;17.026;2022-12-04T06:17:29;2.60;99.90
66920;DHT22;53831;52.090;17.026;2022-12-04T06:18:29;2.60;99.90
66920;DHT22;53831;52.090;17.026;2022-12-04T06:19:30;2.60;99.90
66920;DHT22;53831;52.090;17.026;2022-12-04T06:20:31;2.60;99.90
66920;DHT22;53831;52.090;17.026;2022-12-04T06:21:33;2.70;99.90
66920;DHT22;53831;52.090;17.026;2022-12-04T06:22:34;2.60;99.90
66920;DHT22;53831;52.090;17.026;2022-12-04T06:23:36;2.70;99.90
66920;DHT22;53831;52.090;17.026;2022-12-04T06:24:37;2.70;99.90
66920;DHT22;53831;52.090;17.026;2022-12-04T06:25:38;2.70;99.90
66920;DHT22;53831;52.090;17.026;2022-12-04T06:26:38;2.70;99.90
66920;DHT22;53831;52.090;17.026;2022-12-04T06:27:39;2.70;99.90
66920;DHT22;53831;52.090;17.026;2022-12-04T06:28:40;2.70;99.90
66920;DHT22;53831;52.090;17.026;2022-12-04T06:29:40;2.60;99.90
66920;DHT22;53831;52.090;17.026;2022-12-04T06:30:41;2.70;99.90
66920;DHT22;53831;52.090;17.026;2022-12-04T06:31:42;2.70;99.90
66920;DHT22;53831;52.090;17.026;2022-12-04T06:32:42;2.70;99.90
66920;DHT22;53831;52.090;17.026;2022-12-04T06:33:44;2.70;99.90
66920;DHT22;53831;52.090;17.026;2022-12-04T06:34:44;2.70;99.90
66920;DHT22;53831;52.090;17.026;2022-12-04T06:35:45;2.70;99.90
66920;DHT22;53831;52.090;17.026;2022-12-04T06:36:46;2.70;99.90
66920;DHT22;53831;52.090;17.026;2022-12-04T06:37:46;2.70;99.90
66920;DHT22;53831;52.090;17.026;2022-12-04T06:38:49;2.70;99.90
66920;DHT22;53831;52.090;17.026;2022-12-04T06:39:52;2.70;99.90
66920;DHT22;53831;52.090;17.026;2022-12-04T06:40:53;2.70;99.90
66920;DHT22;53831;52.090;17.026;2022-12-04T06:41:54;2.70;99.90
66920;DHT22;53831;52.090;17.026;2022-12-04T06:42:55;2.80;99.90
66920;DHT22;53831;52.090;17.026;2022-12-04T06:43:57;2.70;99.90
66920;DHT22;53831;52.090;17.026;2022-12-04T06:44:58;2.70;99.90
66920;DHT22;53831;52.090;17.026;2022-12-04T06:46:03;2.80;99.90
66920;DHT22;53831;52.090;17.026;2022-12-04T06:47:04;2.70;99.90
66920;DHT22;53831;52.090;17.026;2022-12-04T06:48:05;2.70;99.90
66920;DHT22;53831;52.090;17.026;2022-12-04T06:49:05;2.70;99.90
66920;DHT22;53831;52.090;17.026;2022-12-04T06:50:06;2.70;99.90
66920;DHT22;53831;52.090;17.026;2022-12-04T06:51:11;2.70;99.90
66920;DHT22;53831;52.090;17.026;2022-12-04T06:52:11;2.70;99.90
66920;DHT22;53831;52.090;17.026;2022-12-04T06:53:12;2.80;99.90
66920;DHT22;53831;52.090;17.026;2022-12-04T06:54:13;2.70;99.90
66920;DHT22;53831;52.090;17.026;2022-12-04T06:55:13;2.80;99.90
66920;DHT22;53831;52.090;17.026;2022-12-04T06:56:16;2.80;99.90
66920;DHT22;53831;52.090;17.026;2022-12-04T06:57:17;2.80;99.90
66920;DHT22;53831;52.090;17.026;2022-12-04T06:58:18;2.80;99.90
66920;DHT22;53831;52.090;17.026;2022-12-04T06:59:18;2.80;99.90
66920;DHT22;53831;52.090;17.026;2022-12-04T07:00:19;2.80;99.90
66920;DHT22;53831;52.090;17.026;2022-12-04T07:01:22;2.80;99.90
66920;DHT22;53831;52.090;17.026;2022-12-04T07:02:23;2.80;99.90
66920;DHT22;53831;52.090;17.026;2022-12-04T07:03:24;2.80;99.90
66920;DHT22;53831;52.090;17.026;2022-12-04T07:04:25;2.80;99.90
66920;DHT22;53831;52.090;17.026;2022-12-04T07:05:26;2.80;99.90
66920;DHT22;53831;52.090;17.026;2022-12-04T07:06:29;2.90;99.90
66920;DHT22;53831;52.090;17.026;2022-12-04T07:07:30;2.90;99.90
66920;DHT22;53831;52.090;17.026;2022-12-04T07:08:30;2.90;99.90